Time;durP1;ratioP1;P1;durP2;ratioP2;P2;SDS_P1;SDS_P2;PMS_P1;PMS_P2;Temp;Humidity;BMP_temperature;BMP_pressure;BME280_temperature;BME280_humidity;BME280_pressure;Samples;Min_cycle;Max_cycle;Signal;HPM_P1;HPM_P2
2019/04/28 00:01:25;;;;;;;1.3;0.5;;;;;;;7.35;73.16797;940.2537;;;;
2019/04/28 00:03:33;;;;;;;0.6;0.5;;;;;;;7.17;73.10547;940.1453;;;;
2019/04/28 00:05:58;;;;;;;0.6;0.4;;;;;;;7.38;72.40332;940.2427;;;;
2019/04/28 00:08:24;;;;;;;0.5;0.5;;;;;;;7.58;72.74316;940.1931;;;;
2019/04/28 00:10:49;;;;;;;1.6;0.6;;;;;;;7.8;70.33105;940.1675;;;;
2019/04/28 00:13:14;;;;;;;1.1;0.7;;;;;;;7.53;74.41211;940.1006;;;;
2019/04/28 00:15:39;;;;;;;1.2;0.6;;;;;;;7.68;74.16699;940.1941;;;;
2019/04/28 00:18:04;;;;;;;0.6;0.5;;;;;;;7.71;74.23926;940.1749;;;;
2019/04/28 00:20:46;;;;;;;1.6;0.5;;;;;;;7.47;75.79785;940.1897;;;;
2019/04/28 00:23:02;;;;;;;1.5;0.6;;;;;;;7.41;76.45703;940.2659;;;;
2019/04/28 00:25:27;;;;;;;1.1;0.6;;;;;;;7.45;76.31543;940.2542;;;;
2019/04/28 00:27:46;;;;;;;1;0.5;;;;;;;7.67;72.68945;940.2079;;;;
2019/04/28 00:30:11;;;;;;;1.8;0.5;;;;;;;7.72;72.07617;940.1824;;;;
2019/04/28 00:32:36;;;;;;;0.9;0.6;;;;;;;7.7;73.0918;940.1675;;;;
2019/04/28 00:35:01;;;;;;;1;0.4;;;;;;;7.78;72.60742;940.1312;;;;
2019/04/28 00:37:31;;;;;;;1;0.5;;;;;;;7.66;73.17676;940.1406;;;;
2019/04/28 00:39:52;;;;;;;0.7;0.5;;;;;;;7.61;74.64355;940.1276;;;;
2019/04/28 00:42:17;;;;;;;0.6;0.5;;;;;;;7.69;74.04395;940.1467;;;;
2019/04/28 00:44:42;;;;;;;1.2;0.5;;;;;;;7.87;70.56934;940.0941;;;;
2019/04/28 00:47:08;;;;;;;1.3;0.5;;;;;;;8.19;72.63184;940.1188;;;;
2019/04/28 00:49:48;;;;;;;1.7;0.5;;;;;;;7.6;74.92578;940.238;;;;
2019/04/28 00:52:01;;;;;;;0.5;0.5;;;;;;;7.42;75.93555;940.1686;;;;
2019/04/28 00:54:23;;;;;;;0.7;0.4;;;;;;;7.29;76.6377;940.1786;;;;
2019/04/28 00:56:49;;;;;;;1;0.5;;;;;;;7.47;75.75195;940.1897;;;;
2019/04/28 00:59:17;;;;;;;0.6;0.4;;;;;;;7.64;74.24023;940.2058;;;;
2019/04/28 01:01:55;;;;;;;0.8;0.5;;;;;;;8.05;72.86816;940.2283;;;;
2019/04/28 01:04:05;;;;;;;0.9;0.5;;;;;;;7.84;74.9209;940.2615;;;;
2019/04/28 01:06:30;;;;;;;1;0.5;;;;;;;7.72;75.3418;940.2885;;;;
2019/04/28 01:08:55;;;;;;;1.2;0.6;;;;;;;7.81;74.2002;940.3107;;;;
2019/04/28 01:11:20;;;;;;;0.8;0.6;;;;;;;7.54;74.94824;940.3317;;;;
2019/04/28 01:13:45;;;;;;;1.1;0.6;;;;;;;7.63;73.89648;940.3633;;;;
2019/04/28 01:16:20;;;;;;;1.6;0.5;;;;;;;7.64;73.88867;940.324;;;;
2019/04/28 01:18:43;;;;;;;0.5;0.5;;;;;;;7.79;74.92285;940.3757;;;;
2019/04/28 01:21:03;;;;;;;0.9;0.5;;;;;;;7.7;76.4834;940.4338;;;;
2019/04/28 01:23:31;;;;;;;1.5;0.6;;;;;;;8.03;75.01074;940.4619;;;;
2019/04/28 01:25:56;;;;;;;0.5;0.4;;;;;;;8.07;75.50488;940.4588;;;;
2019/04/28 01:28:21;;;;;;;0.5;0.4;;;;;;;7.95;75.41699;940.5319;;;;
2019/04/28 01:31:02;;;;;;;0.8;0.5;;;;;;;7.85;76.47754;940.5527;;;;
2019/04/28 01:33:17;;;;;;;0.9;0.5;;;;;;;8.07;75.80078;940.5222;;;;
2019/04/28 01:35:37;;;;;;;0.5;0.4;;;;;;;7.87;75.47168;940.5888;;;;
2019/04/28 01:38:02;;;;;;;0.8;0.6;;;;;;;7.98;75.0127;940.5381;;;;
2019/04/28 01:40:27;;;;;;;1;0.6;;;;;;;7.68;76.87793;940.6213;;;;
2019/04/28 01:42:52;;;;;;;0.8;0.5;;;;;;;7.62;77.02539;940.6008;;;;
2019/04/28 01:45:18;;;;;;;2;0.7;;;;;;;7.43;77.15137;940.577;;;;
2019/04/28 01:47:43;;;;;;;1.4;0.6;;;;;;;7.55;76.51465;940.6393;;;;
2019/04/28 01:50:08;;;;;;;2.3;0.4;;;;;;;7.51;75.88281;940.685;;;;
2019/04/28 01:52:35;;;;;;;2;0.7;;;;;;;7.59;75.90918;940.725;;;;
2019/04/28 01:55:00;;;;;;;1.3;0.6;;;;;;;7.61;77.32031;940.6728;;;;
2019/04/28 01:57:26;;;;;;;0.8;0.6;;;;;;;7.66;75.875;940.7539;;;;
2019/04/28 01:59:51;;;;;;;1.3;0.6;;;;;;;7.74;75.33496;940.7472;;;;
2019/04/28 02:02:18;;;;;;;1.3;0.6;;;;;;;7.66;76.53418;940.8;;;;
2019/04/28 02:04:42;;;;;;;0.8;0.5;;;;;;;7.08;76.04395;940.7692;;;;
2019/04/28 02:07:08;;;;;;;1.1;0.5;;;;;;;7.11;77.5459;940.6862;;;;
2019/04/28 02:09:33;;;;;;;2.4;0.6;;;;;;;7.3;76.86621;940.7562;;;;
2019/04/28 02:11:58;;;;;;;1.4;0.5;;;;;;;7.06;75.88281;940.6863;;;;
2019/04/28 02:14:23;;;;;;;1.2;0.5;;;;;;;6.85;76.81934;940.7865;;;;
2019/04/28 02:16:48;;;;;;;1.3;0.5;;;;;;;6.66;77.86035;940.7667;;;;
2019/04/28 02:19:13;;;;;;;1.2;0.5;;;;;;;6.23;78.83301;940.7942;;;;
2019/04/28 02:21:45;;;;;;;1.3;0.6;;;;;;;6.5;77.95703;940.7614;;;;
2019/04/28 02:26:29;;;;;;;2.9;0.6;;;;;;;6.33;78.02539;940.7236;;;;
2019/04/28 02:28:54;;;;;;;2.4;0.5;;;;;;;6.31;78.61035;940.7166;;;;
2019/04/28 02:31:19;;;;;;;1.6;0.6;;;;;;;6.13;79.16504;940.8605;;;;
2019/04/28 02:33:44;;;;;;;1;0.5;;;;;;;6.05;79.12695;940.8621;;;;
2019/04/28 02:36:09;;;;;;;1;0.6;;;;;;;5.93;80.35938;940.8453;;;;
2019/04/28 02:38:35;;;;;;;1.2;0.6;;;;;;;6.27;79.1582;940.8586;;;;
2019/04/28 02:41:00;;;;;;;1.8;0.8;;;;;;;6.21;78.57129;940.8459;;;;
2019/04/28 02:43:27;;;;;;;2.4;0.7;;;;;;;6.5;77.5498;940.8585;;;;
2019/04/28 02:45:52;;;;;;;1.3;0.7;;;;;;;6.83;75.18652;940.7963;;;;
2019/04/28 02:48:21;;;;;;;1.8;0.6;;;;;;;6.83;75.0957;940.8596;;;;
2019/04/28 02:51:05;;;;;;;1;0.7;;;;;;;6.37;76.58496;940.8092;;;;
2019/04/28 02:53:17;;;;;;;1.5;0.9;;;;;;;6.58;77.30273;940.7389;;;;
2019/04/28 02:55:32;;;;;;;2.1;0.8;;;;;;;6.28;77.62207;940.8535;;;;
2019/04/28 02:57:58;;;;;;;0.9;0.7;;;;;;;6.01;79.53711;940.8438;;;;
2019/04/28 03:00:23;;;;;;;2.3;0.7;;;;;;;6.47;76.77441;940.8441;;;;
2019/04/28 03:02:48;;;;;;;1.8;0.9;;;;;;;6.76;76.35059;940.818;;;;
2019/04/28 03:05:13;;;;;;;1.6;0.8;;;;;;;6.39;76.75977;940.8416;;;;
2019/04/28 03:07:38;;;;;;;1.6;0.7;;;;;;;6.65;76.69531;940.8347;;;;
2019/04/28 03:10:03;;;;;;;2.7;0.8;;;;;;;6.21;78.28516;940.8339;;;;
2019/04/28 03:12:31;;;;;;;1.3;0.7;;;;;;;5.81;81.09375;940.858;;;;
2019/04/28 03:14:56;;;;;;;1.5;0.8;;;;;;;5.85;80.88672;940.7661;;;;
2019/04/28 03:17:21;;;;;;;1.2;0.7;;;;;;;5.79;79.67871;940.7536;;;;
2019/04/28 03:19:47;;;;;;;2.5;0.7;;;;;;;5.69;80.83496;940.6177;;;;
2019/04/28 03:22:18;;;;;;;1.9;1;;;;;;;5.73;79.57715;940.5092;;;;
2019/04/28 03:24:44;;;;;;;2.2;0.9;;;;;;;5.93;79.87402;940.5419;;;;
2019/04/28 03:29:44;;;;;;;1.4;0.8;;;;;;;6.04;79.41016;940.6389;;;;
2019/04/28 03:32:07;;;;;;;1.3;0.7;;;;;;;6.27;78.52441;940.551;;;;
2019/04/28 03:34:40;;;;;;;1.5;0.8;;;;;;;6.5;77.60449;940.5341;;;;
2019/04/28 03:36:50;;;;;;;1.3;0.7;;;;;;;6.52;76.2168;940.6336;;;;
2019/04/28 03:39:15;;;;;;;1.9;0.8;;;;;;;6.36;78.91406;940.6028;;;;
2019/04/28 03:41:43;;;;;;;2.2;1.1;;;;;;;6.39;78.38965;940.5878;;;;
2019/04/28 03:44:08;;;;;;;2;1.1;;;;;;;6.05;77.90723;940.5751;;;;
2019/04/28 03:46:37;;;;;;;1.5;0.9;;;;;;;6.21;77.40723;940.4917;;;;
2019/04/28 03:48:58;;;;;;;2.3;0.9;;;;;;;6.44;77.05176;940.2977;;;;
2019/04/28 03:51:25;;;;;;;1.6;0.9;;;;;;;6.19;79.11035;940.3326;;;;
2019/04/28 03:53:50;;;;;;;1;0.8;;;;;;;6.04;80.21191;940.2176;;;;
2019/04/28 03:56:15;;;;;;;1.9;0.9;;;;;;;5.96;79.92383;940.1896;;;;
2019/04/28 03:58:40;;;;;;;1.9;1;;;;;;;6.09;80.01855;940.1503;;;;
2019/04/28 04:02:29;;;;;;;1.2;0.9;;;;;;;6.15;78.55957;940.1797;;;;
2019/04/28 04:04:54;;;;;;;1.3;0.9;;;;;;;5.98;79.14746;940.2137;;;;
2019/04/28 04:07:20;;;;;;;1.3;1;;;;;;;6.18;77.84082;940.2665;;;;
2019/04/28 04:09:55;;;;;;;3;1;;;;;;;6.28;77.37305;940.3055;;;;
2019/04/28 04:12:19;;;;;;;1.9;0.9;;;;;;;6.26;77.65137;940.2819;;;;
2019/04/28 04:15:00;;;;;;;2.6;1;;;;;;;6.1;79.30664;940.2809;;;;
2019/04/28 04:17:09;;;;;;;2.1;1;;;;;;;6.06;79.65039;940.317;;;;
2019/04/28 04:19:25;;;;;;;2.8;0.9;;;;;;;5.94;80.21387;940.2079;;;;
2019/04/28 04:21:51;;;;;;;2.4;1.2;;;;;;;5.85;81.15723;940.2776;;;;
2019/04/28 04:24:16;;;;;;;4;1.3;;;;;;;6.15;79.8125;940.2308;;;;
2019/04/28 04:26:41;;;;;;;1.9;1.1;;;;;;;6.25;79.32422;940.2104;;;;
2019/04/28 04:29:08;;;;;;;3;1.2;;;;;;;6.13;79.17676;940.224;;;;
2019/04/28 04:31:33;;;;;;;2.3;1.1;;;;;;;5.76;80.44043;940.2841;;;;
2019/04/28 04:33:58;;;;;;;2.2;1.1;;;;;;;5.62;81.10352;940.2389;;;;
2019/04/28 04:36:24;;;;;;;2.3;1;;;;;;;5.68;81.18262;940.2137;;;;
2019/04/28 04:38:49;;;;;;;4.1;1.2;;;;;;;5.86;81.0459;940.1547;;;;
2019/04/28 04:41:14;;;;;;;2;0.9;;;;;;;5.61;82.02539;940.1348;;;;
2019/04/28 04:43:41;;;;;;;2.3;1.1;;;;;;;5.83;80.84863;940.1569;;;;
2019/04/28 04:46:13;;;;;;;2.2;1.5;;;;;;;5.8;79.33105;940.2175;;;;
2019/04/28 04:48:30;;;;;;;3.3;1.4;;;;;;;6.05;78.7998;940.1245;;;;
2019/04/28 04:50:55;;;;;;;2.4;1.5;;;;;;;6.21;78.16406;940.2134;;;;
2019/04/28 04:53:20;;;;;;;3.2;1.6;;;;;;;6.32;78.60254;940.2094;;;;
2019/04/28 04:55:45;;;;;;;2.1;1.6;;;;;;;6.48;78.55176;940.2234;;;;
2019/04/28 04:58:10;;;;;;;2.2;1.4;;;;;;;6.69;76.45215;940.342;;;;
2019/04/28 05:00:45;;;;;;;2;1.3;;;;;;;6.37;77.61426;940.3031;;;;
2019/04/28 05:03:06;;;;;;;2.1;1.1;;;;;;;6.37;77.77441;940.2227;;;;
2019/04/28 05:05:35;;;;;;;3.3;1;;;;;;;6.31;77.24219;940.1852;;;;
2019/04/28 05:07:51;;;;;;;2.5;1.1;;;;;;;6.14;77.50488;940.1682;;;;
2019/04/28 05:10:16;;;;;;;2;1.1;;;;;;;6.22;77.20313;940.2467;;;;
2019/04/28 05:12:41;;;;;;;2.2;1.2;;;;;;;6.17;77.28613;940.2419;;;;
2019/04/28 05:15:06;;;;;;;2.2;1.2;;;;;;;6.19;77.8877;940.316;;;;
2019/04/28 05:17:32;;;;;;;1.8;1.3;;;;;;;6.16;78.18848;940.2338;;;;
2019/04/28 05:19:57;;;;;;;1.9;1.3;;;;;;;6.65;76.21973;940.2271;;;;
2019/04/28 05:22:23;;;;;;;2.8;1.1;;;;;;;6.76;75.9541;940.2101;;;;
2019/04/28 05:24:56;;;;;;;2.2;1.2;;;;;;;6.7;76.68066;940.2022;;;;
2019/04/28 05:27:13;;;;;;;3.1;1.3;;;;;;;6.93;75.40918;940.1508;;;;
2019/04/28 05:29:38;;;;;;;2.1;1.1;;;;;;;6.58;76.28418;940.1273;;;;
2019/04/28 05:32:05;;;;;;;1.8;1;;;;;;;6.48;77.12598;940.1262;;;;
2019/04/28 05:34:30;;;;;;;2.2;1.2;;;;;;;6.53;76.80762;940.1096;;;;
2019/04/28 05:36:56;;;;;;;3.4;1.7;;;;;;;6.73;75.91602;940.2171;;;;
2019/04/28 05:39:21;;;;;;;3.3;2.1;;;;;;;6.39;76.66895;940.1916;;;;
2019/04/28 05:41:46;;;;;;;3.4;1.7;;;;;;;6.6;76.65137;940.2349;;;;
2019/04/28 05:44:11;;;;;;;4.3;1.8;;;;;;;6.67;76.20996;940.2551;;;;
2019/04/28 05:46:36;;;;;;;2.5;1.5;;;;;;;6.57;77.19922;940.2544;;;;
2019/04/28 05:49:07;;;;;;;2.9;1.5;;;;;;;6.88;76.8125;940.2015;;;;
2019/04/28 05:51:27;;;;;;;2;1.1;;;;;;;6.69;76.62207;940.3041;;;;
2019/04/28 05:53:58;;;;;;;1.8;1.1;;;;;;;6.69;76.79004;940.3087;;;;
2019/04/28 05:59:04;;;;;;;3.1;1;;;;;;;7.25;75.05469;940.2662;;;;
2019/04/28 06:01:24;;;;;;;2.1;1.3;;;;;;;7.24;75.44043;940.2328;;;;
2019/04/28 06:03:37;;;;;;;1.6;1.1;;;;;;;7.34;74.29004;940.2417;;;;
2019/04/28 06:06:02;;;;;;;2;1.1;;;;;;;7.39;73.77539;940.2214;;;;
2019/04/28 06:10:52;;;;;;;1.5;0.8;;;;;;;7.35;74.94727;940.2325;;;;
2019/04/28 06:13:17;;;;;;;2.5;1.6;;;;;;;7.4;74.79883;940.2875;;;;
2019/04/28 06:15:46;;;;;;;2.6;1.8;;;;;;;7.57;72.66113;940.2156;;;;
2019/04/28 06:18:11;;;;;;;2.5;1.7;;;;;;;7.81;72.63379;940.2346;;;;
2019/04/28 06:20:36;;;;;;;2.7;1.3;;;;;;;7.78;71.2793;940.1941;;;;
2019/04/28 06:23:01;;;;;;;2.8;1;;;;;;;7.52;70.99805;940.1859;;;;
2019/04/28 06:25:26;;;;;;;1.9;1.2;;;;;;;7.56;71.77637;940.2117;;;;
2019/04/28 06:27:51;;;;;;;1.4;1.1;;;;;;;7.69;71.30957;940.2736;;;;
2019/04/28 06:30:16;;;;;;;2.3;1.2;;;;;;;7.94;71.38477;940.2454;;;;
2019/04/28 06:32:41;;;;;;;1.5;1;;;;;;;7.88;72.5459;940.2625;;;;
2019/04/28 06:35:07;;;;;;;2.7;1.3;;;;;;;8.48;72.43066;940.2439;;;;
2019/04/28 06:37:32;;;;;;;1;0.8;;;;;;;8.87;63.80664;940.2029;;;;
2019/04/28 06:40:02;;;;;;;2;0.9;;;;;;;8.42;67.88672;940.1561;;;;
2019/04/28 06:42:28;;;;;;;1.5;0.9;;;;;;;8.24;69.05078;940.132;;;;
2019/04/28 06:44:53;;;;;;;1.3;0.7;;;;;;;8.34;68.87305;940.0988;;;;
2019/04/28 06:47:18;;;;;;;2;0.7;;;;;;;8.81;68.1084;940.1232;;;;
2019/04/28 06:49:46;;;;;;;1.6;0.7;;;;;;;9;66.98828;940.2004;;;;
2019/04/28 06:52:08;;;;;;;2;0.9;;;;;;;8.8;63.625;940.171;;;;
2019/04/28 06:54:35;;;;;;;1.8;0.8;;;;;;;8.41;64.79492;940.1313;;;;
2019/04/28 06:57:00;;;;;;;2;0.9;;;;;;;8.69;66.5752;939.9942;;;;
2019/04/28 06:59:25;;;;;;;3.5;1;;;;;;;9.22;64.14258;940.0207;;;;
2019/04/28 07:01:51;;;;;;;2.2;0.8;;;;;;;9.36;64.2998;939.9625;;;;
2019/04/28 07:04:19;;;;;;;2.1;0.9;;;;;;;8.94;64.35156;939.9683;;;;
2019/04/28 07:06:42;;;;;;;1.9;0.8;;;;;;;9.72;65.34473;940.0111;;;;
2019/04/28 07:09:07;;;;;;;4.1;0.7;;;;;;;9.76;61.08789;939.991;;;;
2019/04/28 07:11:32;;;;;;;1.4;0.9;;;;;;;9.95;60.77246;939.9528;;;;
2019/04/28 07:13:57;;;;;;;1;0.8;;;;;;;9.41;65.42383;939.9578;;;;
2019/04/28 07:16:22;;;;;;;1.7;0.8;;;;;;;9.25;62.42969;939.9799;;;;
2019/04/28 07:18:48;;;;;;;2.4;0.9;;;;;;;9.51;63.27441;940.0003;;;;
2019/04/28 07:21:22;;;;;;;1.9;0.9;;;;;;;9.52;61.69238;939.9481;;;;
2019/04/28 07:23:39;;;;;;;1.5;0.7;;;;;;;9.65;60.20508;939.963;;;;
2019/04/28 07:26:03;;;;;;;1.8;0.9;;;;;;;9.62;60.32715;939.9825;;;;
2019/04/28 07:28:28;;;;;;;1.7;0.9;;;;;;;9.84;60.38184;939.9503;;;;
2019/04/28 07:30:53;;;;;;;2.3;1.1;;;;;;;10;60.89453;939.8809;;;;
2019/04/28 07:33:19;;;;;;;2.2;1.1;;;;;;;10.26;59.59668;939.8791;;;;
2019/04/28 07:35:44;;;;;;;2.8;1.4;;;;;;;9.99;59.58203;939.7925;;;;
2019/04/28 07:38:09;;;;;;;3.2;1.3;;;;;;;10.34;60.24707;939.8459;;;;
2019/04/28 07:40:34;;;;;;;2.1;1.1;;;;;;;10.34;58.02148;939.8586;;;;
2019/04/28 07:42:59;;;;;;;2.3;1.2;;;;;;;10.75;57.91504;939.8433;;;;
2019/04/28 07:45:25;;;;;;;1.9;1.2;;;;;;;11.23;55.63672;939.7726;;;;
2019/04/28 07:47:50;;;;;;;1.8;1.3;;;;;;;10.92;56.07617;939.7802;;;;
2019/04/28 07:50:15;;;;;;;1.3;1.1;;;;;;;11.43;56.51953;939.7755;;;;
2019/04/28 07:52:46;;;;;;;1.9;1.2;;;;;;;10.64;57.57031;939.7975;;;;
2019/04/28 07:55:05;;;;;;;2.7;1.3;;;;;;;10.89;55.64844;939.7965;;;;
2019/04/28 07:57:31;;;;;;;3.3;1.4;;;;;;;10.67;56.06641;939.7994;;;;
2019/04/28 07:59:56;;;;;;;6.2;1.4;;;;;;;10.36;58.77734;939.8016;;;;
2019/04/28 08:02:21;;;;;;;2.4;1.1;;;;;;;10.64;55.10352;939.8317;;;;
2019/04/28 08:04:46;;;;;;;2.5;1.2;;;;;;;11.03;56.49023;939.834;;;;
2019/04/28 08:07:13;;;;;;;2.8;1.1;;;;;;;11.37;55.5625;939.8575;;;;
2019/04/28 08:09:38;;;;;;;1.7;1;;;;;;;10.77;55.07422;939.9177;;;;
2019/04/28 08:12:03;;;;;;;2;0.9;;;;;;;10.58;57.17383;939.9055;;;;
2019/04/28 08:14:28;;;;;;;2.3;0.9;;;;;;;10.9;56.97559;939.9313;;;;
2019/04/28 08:16:53;;;;;;;2.4;1;;;;;;;11.32;55.92188;939.9814;;;;
2019/04/28 08:19:18;;;;;;;2.4;1.1;;;;;;;11.75;56.46973;939.9274;;;;
2019/04/28 08:21:43;;;;;;;2.3;1;;;;;;;11.48;54.05371;939.9114;;;;
2019/04/28 08:24:10;;;;;;;4;1.1;;;;;;;11.51;53.85156;939.9252;;;;
2019/04/28 08:26:35;;;;;;;1.9;1;;;;;;;10.98;50.80273;939.8811;;;;
2019/04/28 08:29:00;;;;;;;2.9;1;;;;;;;11.02;50.59082;939.9161;;;;
2019/04/28 08:31:35;;;;;;;2.1;0.7;;;;;;;11.16;53.80859;939.9199;;;;
2019/04/28 08:33:59;;;;;;;4.2;1.1;;;;;;;11.27;50.11719;940.0026;;;;
2019/04/28 08:36:16;;;;;;;2.6;1.1;;;;;;;10.87;50.80176;939.9294;;;;
2019/04/28 08:38:41;;;;;;;3;0.8;;;;;;;10.38;50.16211;939.9959;;;;
2019/04/28 08:41:06;;;;;;;3;1.1;;;;;;;10.97;51.20313;940.0133;;;;
2019/04/28 08:43:31;;;;;;;2.6;0.9;;;;;;;11;51.14844;940.0701;;;;
2019/04/28 08:45:56;;;;;;;2;1;;;;;;;11.61;50.30371;939.9371;;;;
2019/04/28 08:48:22;;;;;;;2.6;1;;;;;;;12.3;49.44531;939.9553;;;;
2019/04/28 08:50:47;;;;;;;3.2;1.1;;;;;;;12.8;46.66699;939.9189;;;;
2019/04/28 08:53:12;;;;;;;1.7;0.9;;;;;;;13.24;45.77148;939.9348;;;;
2019/04/28 08:55:37;;;;;;;1.7;0.9;;;;;;;13.6;43.85547;939.9059;;;;
2019/04/28 08:58:02;;;;;;;2.4;0.9;;;;;;;13.93;42.09375;939.94;;;;
2019/04/28 09:00:27;;;;;;;3.3;1;;;;;;;13.12;42.95605;939.8317;;;;
2019/04/28 09:02:52;;;;;;;3.2;0.8;;;;;;;13.29;43.04199;939.8781;;;;
2019/04/28 09:05:18;;;;;;;2.7;1;;;;;;;13.31;41.79297;939.8845;;;;
2019/04/28 09:07:43;;;;;;;2.2;1;;;;;;;13.59;41.19727;939.8524;;;;
2019/04/28 09:10:08;;;;;;;2.2;1;;;;;;;13.56;41.17285;939.8931;;;;
2019/04/28 09:12:33;;;;;;;3.1;1.2;;;;;;;13.3;42.87207;939.8686;;;;
2019/04/28 09:14:58;;;;;;;2.2;1.2;;;;;;;14.07;42.80859;939.8538;;;;
2019/04/28 09:17:24;;;;;;;2.1;1;;;;;;;13.98;40.11914;939.8111;;;;
2019/04/28 09:19:49;;;;;;;2.2;1.1;;;;;;;14.07;41.62402;939.7937;;;;
2019/04/28 09:22:14;;;;;;;1.9;1;;;;;;;13.59;43.47461;939.7498;;;;
2019/04/28 09:24:41;;;;;;;2.8;1.3;;;;;;;13.63;44.18066;939.8182;;;;
2019/04/28 09:27:06;;;;;;;2.6;1;;;;;;;13.69;42.49609;939.7822;;;;
2019/04/28 09:29:32;;;;;;;4;1.2;;;;;;;13.67;42.71191;939.8014;;;;
2019/04/28 09:31:58;;;;;;;4.2;1.1;;;;;;;13.45;42.82813;939.7938;;;;
2019/04/28 09:34:23;;;;;;;2.3;1.1;;;;;;;13.35;43.23145;939.7958;;;;
2019/04/28 09:36:48;;;;;;;3;1.2;;;;;;;13.41;41.84766;939.7639;;;;
2019/04/28 09:39:15;;;;;;;3.1;1.1;;;;;;;13.3;43.13477;939.8014;;;;
2019/04/28 09:41:41;;;;;;;3.5;1.3;;;;;;;13.05;43.74219;939.8044;;;;
2019/04/28 09:44:24;;;;;;;4.5;1.3;;;;;;;12.93;44.34961;939.7781;;;;
2019/04/28 09:46:34;;;;;;;4.4;1.2;;;;;;;12.77;45.03418;939.7214;;;;
2019/04/28 09:48:56;;;;;;;3.5;1.2;;;;;;;12.95;45.81055;939.7845;;;;
2019/04/28 09:51:22;;;;;;;3.6;1.4;;;;;;;12.34;46.28516;939.7981;;;;
2019/04/28 09:53:47;;;;;;;3.9;1.2;;;;;;;12.83;44.33984;939.7626;;;;
2019/04/28 09:56:15;;;;;;;3.9;1.2;;;;;;;12.87;43.39063;939.7932;;;;
2019/04/28 09:58:42;;;;;;;3.9;1.2;;;;;;;12.68;44.43848;939.7523;;;;
2019/04/28 10:01:07;;;;;;;5.1;1.3;;;;;;;12.35;44.7041;939.7935;;;;
2019/04/28 10:03:32;;;;;;;3.2;1.1;;;;;;;12.32;44.17383;939.7661;;;;
2019/04/28 10:05:57;;;;;;;4.8;1.4;;;;;;;12.01;45.6084;939.7925;;;;
2019/04/28 10:08:22;;;;;;;4.2;1.4;;;;;;;11.89;45.29785;939.7997;;;;
2019/04/28 10:10:48;;;;;;;5.1;1.4;;;;;;;11.81;45.79297;939.8204;;;;
2019/04/28 10:13:14;;;;;;;3.8;1.2;;;;;;;11.74;46.59863;939.7542;;;;
2019/04/28 10:15:39;;;;;;;4;1.3;;;;;;;11.74;47.47949;939.8436;;;;
2019/04/28 10:18:04;;;;;;;4.7;1.2;;;;;;;12.07;45.59082;939.7317;;;;
2019/04/28 10:20:29;;;;;;;3.5;1.2;;;;;;;11.98;45.97168;939.7101;;;;
2019/04/28 10:22:54;;;;;;;4.9;1.4;;;;;;;11.79;47.35938;939.75;;;;
2019/04/28 10:25:19;;;;;;;6.8;1.2;;;;;;;11.87;47.56348;939.6743;;;;
2019/04/28 10:27:44;;;;;;;5.6;1.4;;;;;;;11.79;47.38281;939.7285;;;;
2019/04/28 10:30:10;;;;;;;4;1.3;;;;;;;12.03;48.28027;939.7267;;;;
2019/04/28 10:32:34;;;;;;;5.1;1.2;;;;;;;11.63;47.8916;939.688;;;;
2019/04/28 10:35:00;;;;;;;4.3;1.3;;;;;;;11.72;49.43652;939.6624;;;;
2019/04/28 10:37:27;;;;;;;3.7;1.1;;;;;;;11.94;49.06055;939.6285;;;;
2019/04/28 10:40:04;;;;;;;2.7;1.1;;;;;;;11.54;49.99902;939.6033;;;;
2019/04/28 10:42:19;;;;;;;3.8;1.3;;;;;;;11.56;50.6084;939.6138;;;;
2019/04/28 10:44:45;;;;;;;4;1.2;;;;;;;11.83;49.6084;939.5336;;;;
2019/04/28 10:47:09;;;;;;;3.3;1.2;;;;;;;12.59;47.22949;939.5264;;;;
2019/04/28 10:49:34;;;;;;;3.3;1.2;;;;;;;13.06;45.3623;939.5349;;;;
2019/04/28 10:51:59;;;;;;;4.2;1;;;;;;;13.05;45.48828;939.5446;;;;
2019/04/28 10:54:25;;;;;;;2.8;1.2;;;;;;;12.66;45.91797;939.507;;;;
2019/04/28 10:56:50;;;;;;;3.7;1.1;;;;;;;12.76;45.96191;939.5352;;;;
2019/04/28 10:59:15;;;;;;;4.8;1.4;;;;;;;13.17;45.69531;939.5062;;;;
2019/04/28 11:01:40;;;;;;;3.6;1.1;;;;;;;12.72;47.03809;939.4623;;;;
2019/04/28 11:04:39;;;;;;;4;1.6;;;;;;;13.22;45.23047;939.3478;;;;
2019/04/28 11:06:30;;;;;;;4.7;1.3;;;;;;;12.52;47.31348;939.4103;;;;
2019/04/28 11:09:20;;;;;;;4.2;1.5;;;;;;;12.67;46.26367;939.348;;;;
2019/04/28 11:11:25;;;;;;;3.9;1.1;;;;;;;13.04;45.47461;939.4133;;;;
2019/04/28 11:13:46;;;;;;;2.3;1.1;;;;;;;12.4;47.2666;939.4047;;;;
2019/04/28 11:16:13;;;;;;;3.6;1.2;;;;;;;12.43;46.79883;939.3381;;;;
2019/04/28 11:18:36;;;;;;;2.9;1.2;;;;;;;12.43;46.81152;939.3166;;;;
2019/04/28 11:21:01;;;;;;;3.3;1.2;;;;;;;12.41;46.40625;939.3233;;;;
2019/04/28 11:23:26;;;;;;;4.6;1.2;;;;;;;12.6;47.09277;939.2612;;;;
2019/04/28 11:25:51;;;;;;;3.3;1.3;;;;;;;12.46;46.94043;939.3094;;;;
2019/04/28 11:28:16;;;;;;;3.5;1;;;;;;;12.34;45.9873;939.2784;;;;
2019/04/28 11:30:42;;;;;;;2.6;1.2;;;;;;;12.36;45.93164;939.3199;;;;
2019/04/28 11:33:17;;;;;;;2.3;1.1;;;;;;;12.46;45.79297;939.4077;;;;
2019/04/28 11:35:32;;;;;;;2.8;1;;;;;;;12.38;47.22949;939.4031;;;;
2019/04/28 11:37:58;;;;;;;3;1.1;;;;;;;12.44;44.47266;939.4092;;;;
2019/04/28 11:40:23;;;;;;;3.4;0.9;;;;;;;12.65;44.52832;939.431;;;;
2019/04/28 11:42:48;;;;;;;3.8;1;;;;;;;11.84;47.0332;939.5066;;;;
2019/04/28 11:45:13;;;;;;;3.9;1.3;;;;;;;11.3;50.7041;939.4352;;;;
2019/04/28 11:47:38;;;;;;;4;1.1;;;;;;;10.61;54.18652;939.5201;;;;
2019/04/28 11:50:03;;;;;;;3.2;1.1;;;;;;;10.17;56.50391;939.4961;;;;
2019/04/28 11:52:28;;;;;;;2.9;1;;;;;;;9.79;56.48828;939.3775;;;;
2019/04/28 11:54:53;;;;;;;5.3;0.9;;;;;;;9.37;57.40039;939.3763;;;;
2019/04/28 11:57:19;;;;;;;3.1;1.1;;;;;;;9.13;58.24609;939.4397;;;;
2019/04/28 11:59:44;;;;;;;4.7;1.2;;;;;;;8.57;60.26172;939.4027;;;;
2019/04/28 12:02:11;;;;;;;2.6;1.1;;;;;;;8.41;61.61328;939.4034;;;;
2019/04/28 12:04:34;;;;;;;4.6;1.8;;;;;;;8.5;61.94434;939.4039;;;;
2019/04/28 12:06:59;;;;;;;4;1.8;;;;;;;8.55;61.81445;939.396;;;;
2019/04/28 12:10:01;;;;;;;3.4;1.5;;;;;;;8.46;61.51758;939.4673;;;;
2019/04/28 12:11:54;;;;;;;3.5;1.4;;;;;;;8.47;61.00781;939.4152;;;;
2019/04/28 12:14:26;;;;;;;3.6;1;;;;;;;8.41;60.60254;939.4752;;;;
2019/04/28 12:16:58;;;;;;;2.4;1.3;;;;;;;8.65;60.875;939.4888;;;;
2019/04/28 12:19:17;;;;;;;4;1.3;;;;;;;8.87;61.05273;939.5175;;;;
2019/04/28 12:21:38;;;;;;;5.4;1.5;;;;;;;9.16;62.24414;939.4966;;;;
2019/04/28 12:24:03;;;;;;;3.5;1;;;;;;;8.67;61.10547;939.5002;;;;
2019/04/28 12:26:28;;;;;;;2.8;1.2;;;;;;;8.25;65.32715;939.4501;;;;
2019/04/28 12:28:53;;;;;;;2.7;0.9;;;;;;;7.78;66.65039;939.5051;;;;
2019/04/28 12:31:18;;;;;;;3.3;1.1;;;;;;;7.79;67.29883;939.4752;;;;
2019/04/28 12:33:43;;;;;;;2.2;1;;;;;;;7.9;66.46582;939.4828;;;;
2019/04/28 12:36:08;;;;;;;4.3;1;;;;;;;8.18;68.29199;939.4515;;;;
2019/04/28 12:38:35;;;;;;;2.1;1.1;;;;;;;8.58;67.92188;939.3767;;;;
2019/04/28 12:41:00;;;;;;;3.6;1.5;;;;;;;8.76;66.21094;939.2683;;;;
2019/04/28 12:43:25;;;;;;;3.9;1.2;;;;;;;8.99;65.13184;939.2822;;;;
2019/04/28 12:45:52;;;;;;;2.7;1;;;;;;;9.37;64.13086;939.3;;;;
2019/04/28 12:48:18;;;;;;;3.6;1.3;;;;;;;9.44;64.30078;939.2433;;;;
2019/04/28 12:50:47;;;;;;;2.1;0.9;;;;;;;9.24;62.24316;939.2653;;;;
2019/04/28 12:53:08;;;;;;;4.6;1;;;;;;;9.41;66.52734;939.2672;;;;
2019/04/28 12:55:33;;;;;;;3.2;1;;;;;;;9.61;60.62305;939.1984;;;;
2019/04/28 12:57:59;;;;;;;3.2;1;;;;;;;9.16;61.90332;939.1915;;;;
2019/04/28 13:00:47;;;;;;;2.5;0.9;;;;;;;9.08;62.7334;939.1473;;;;
2019/04/28 13:05:14;;;;;;;2.7;1.2;;;;;;;9.11;62.80566;939.1747;;;;
2019/04/28 13:07:41;;;;;;;1.7;0.9;;;;;;;9.08;62.02734;939.2658;;;;
2019/04/28 13:10:06;;;;;;;2.2;0.9;;;;;;;9.17;59.28516;939.2035;;;;
2019/04/28 13:12:32;;;;;;;2.2;1;;;;;;;9.22;61.0127;939.165;;;;
2019/04/28 13:14:57;;;;;;;2.5;0.8;;;;;;;9.58;58.56738;939.0912;;;;
2019/04/28 13:17:22;;;;;;;2;0.7;;;;;;;9.65;57.11914;938.9788;;;;
2019/04/28 13:19:50;;;;;;;0.9;0.6;;;;;;;9.52;55.6543;938.9441;;;;
2019/04/28 13:22:15;;;;;;;1.5;0.7;;;;;;;9.85;55.43555;938.9015;;;;
2019/04/28 13:24:43;;;;;;;2;0.7;;;;;;;9.98;53.43359;938.9451;;;;
2019/04/28 13:27:08;;;;;;;2;0.7;;;;;;;10.39;51.91992;938.9677;;;;
2019/04/28 13:29:34;;;;;;;3.3;0.8;;;;;;;10.93;50.72852;938.9381;;;;
2019/04/28 13:31:59;;;;;;;5.1;4.6;;;;;;;11.31;52.375;938.8725;;;;
2019/04/28 13:34:24;;;;;;;2.6;1;;;;;;;11.92;52.13867;938.9333;;;;
2019/04/28 13:36:50;;;;;;;1.8;1;;;;;;;12.11;49.53809;938.8883;;;;
2019/04/28 13:39:23;;;;;;;2.9;1.1;;;;;;;12.13;50.75586;938.8053;;;;
2019/04/28 13:41:40;;;;;;;2.5;1;;;;;;;11.83;47.59375;938.7717;;;;
2019/04/28 13:44:09;;;;;;;2.1;1;;;;;;;11.96;53.25488;938.7372;;;;
2019/04/28 13:46:31;;;;;;;2.1;1;;;;;;;11.96;49.26855;938.7245;;;;
2019/04/28 13:48:56;;;;;;;3;1.4;;;;;;;12.19;48.49219;938.6379;;;;
2019/04/28 13:51:21;;;;;;;3.5;2.4;;;;;;;12.47;49.30371;938.6274;;;;
2019/04/28 13:53:48;;;;;;;2.9;1.1;;;;;;;12.72;46.21191;938.5675;;;;
2019/04/28 13:56:16;;;;;;;2.2;0.9;;;;;;;12.45;45.08105;938.6035;;;;
2019/04/28 13:58:40;;;;;;;2.3;1;;;;;;;12.61;48.44727;938.5958;;;;
2019/04/28 14:05:59;;;;;;;2.2;0.8;;;;;;;12.94;45.86719;938.5705;;;;
2019/04/28 14:08:21;;;;;;;3.9;0.8;;;;;;;12.81;46.55273;938.558;;;;
2019/04/28 14:10:49;;;;;;;2.2;0.9;;;;;;;12.85;45.8457;938.4568;;;;
2019/04/28 14:13:14;;;;;;;1.4;0.7;;;;;;;12.86;42.94336;938.6;;;;
2019/04/28 14:15:39;;;;;;;1.6;0.8;;;;;;;12.02;46.28613;938.5144;;;;
2019/04/28 14:18:06;;;;;;;1.9;0.9;;;;;;;11.46;46.2832;938.5477;;;;
2019/04/28 14:20:32;;;;;;;1.7;0.8;;;;;;;11.56;49.91016;938.5332;;;;
2019/04/28 14:22:57;;;;;;;4.7;1;;;;;;;11.62;51.60059;938.5873;;;;
2019/04/28 14:25:22;;;;;;;1.5;1;;;;;;;11.99;48.16016;938.5394;;;;
2019/04/28 14:27:48;;;;;;;2.8;1.1;;;;;;;11.88;47.70215;938.5414;;;;
2019/04/28 14:30:13;;;;;;;2.1;1;;;;;;;11.33;50.38672;938.6326;;;;
2019/04/28 14:32:39;;;;;;;2.9;1;;;;;;;10.9;51.13574;938.6057;;;;
2019/04/28 14:35:04;;;;;;;2.1;0.9;;;;;;;10.45;51.96191;938.682;;;;
2019/04/28 14:37:29;;;;;;;5.7;1.2;;;;;;;10.62;52.65625;938.6578;;;;
2019/04/28 14:39:56;;;;;;;4.5;2;;;;;;;10.49;52.67578;938.669;;;;
2019/04/28 14:42:21;;;;;;;5.9;1.7;;;;;;;10.08;57.53027;938.7025;;;;